Time;durP1;ratioP1;P1;durP2;ratioP2;P2;SDS_P1;SDS_P2;PMS_P1;PMS_P2;Temp;Humidity;BMP_temperature;BMP_pressure;BME280_temperature;BME280_humidity;BME280_pressure;Samples;Min_cycle;Max_cycle;Signal;HPM_P1;HPM_P2
2023/07/11 00:06:08;;;;;;;41.50;35.13;;;18.50;99.90;;;;;;25684339;23;20012;-54
2023/07/11 00:16:12;;;;;;;43.45;35.30;;;18.30;99.90;;;;;;25710537;23;20452;-45
2023/07/11 00:26:16;;;;;;;51.00;38.03;;;18.10;99.90;;;;;;25710324;23;20063;-56
2023/07/11 00:36:18;;;;;;;46.15;36.83;;;18.00;99.90;;;;;;25710488;23;20009;-57
2023/07/11 00:46:20;;;;;;;48.45;39.45;;;17.80;99.90;;;;;;25710985;23;20012;-54
2023/07/11 00:56:27;;;;;;;47.95;39.38;;;17.70;99.90;;;;;;25709475;23;20001;-56
2023/07/11 01:06:31;;;;;;;47.70;39.10;;;17.70;99.90;;;;;;25729637;23;20004;-54
2023/07/11 01:16:33;;;;;;;52.40;40.25;;;17.60;99.90;;;;;;25717386;23;20009;-56
2023/07/11 01:26:34;;;;;;;51.83;38.70;;;17.60;99.90;;;;;;25717067;23;20129;-46
2023/07/11 01:36:36;;;;;;;51.75;41.70;;;17.50;99.90;;;;;;25716798;23;20031;-56
2023/07/11 01:46:37;;;;;;;53.58;40.75;;;17.50;99.90;;;;;;25689122;23;20016;-48
2023/07/11 01:56:40;;;;;;;52.10;40.50;;;17.40;99.90;;;;;;25715653;23;20011;-57
2023/07/11 02:06:42;;;;;;;54.63;41.30;;;17.50;99.90;;;;;;25688867;23;20005;-46
2023/07/11 02:16:46;;;;;;;51.55;40.13;;;17.30;99.90;;;;;;25687636;23;20371;-46
2023/07/11 02:26:49;;;;;;;57.45;43.75;;;17.30;99.90;;;;;;25755887;23;20016;-47
2023/07/11 02:36:51;;;;;;;55.35;40.42;;;17.30;99.90;;;;;;25714363;23;20005;-46
2023/07/11 02:46:53;;;;;;;49.03;40.17;;;17.20;99.90;;;;;;25713330;23;20008;-45
2023/07/11 02:56:54;;;;;;;54.45;42.60;;;17.10;99.90;;;;;;25712729;23;20005;-49
2023/07/11 03:06:56;;;;;;;55.83;43.65;;;17.10;99.90;;;;;;25713306;23;20008;-46
2023/07/11 03:16:58;;;;;;;58.28;42.90;;;17.10;99.90;;;;;;25712841;23;20014;-47
2023/07/11 03:26:59;;;;;;;59.55;44.80;;;17.10;99.90;;;;;;25712418;23;20009;-49
2023/07/11 03:37:01;;;;;;;55.53;43.35;;;16.90;99.90;;;;;;25712026;23;20083;-45
2023/07/11 03:47:03;;;;;;;60.25;44.03;;;17.00;99.90;;;;;;25711293;23;20063;-45
2023/07/11 03:57:05;;;;;;;56.10;43.72;;;17.00;99.90;;;;;;25710830;23;20375;-45
2023/07/11 04:07:07;;;;;;;62.83;44.88;;;17.00;99.90;;;;;;25711426;23;20005;-54
2023/07/11 04:17:08;;;;;;;58.58;43.55;;;17.00;99.90;;;;;;25710605;23;20440;-49
2023/07/11 04:27:10;;;;;;;53.20;41.88;;;17.10;99.90;;;;;;25710611;23;20004;-45
2023/07/11 04:37:12;;;;;;;52.08;38.90;;;17.10;99.90;;;;;;25712044;23;20009;-48
2023/07/11 04:47:13;;;;;;;45.33;34.90;;;17.40;99.90;;;;;;25716786;23;20391;-50
2023/07/11 04:57:15;;;;;;;43.42;34.03;;;17.50;99.90;;;;;;25718269;23;20001;-48
2023/07/11 05:07:16;;;;;;;40.63;32.72;;;17.60;99.90;;;;;;25718047;23;20012;-49
2023/07/11 05:17:18;;;;;;;37.28;29.00;;;17.80;99.90;;;;;;25717360;23;20012;-44
2023/07/11 05:27:20;;;;;;;30.00;24.88;;;18.00;99.90;;;;;;25717110;23;20004;-44
2023/07/11 05:37:21;;;;;;;26.20;21.50;;;18.30;99.90;;;;;;25716837;23;20513;-45
2023/07/11 05:47:23;;;;;;;23.77;19.67;;;18.60;99.90;;;;;;25715395;23;20017;-47
2023/07/11 05:57:24;;;;;;;23.13;18.77;;;19.00;99.90;;;;;;25715905;23;20309;-46
2023/07/11 06:07:28;;;;;;;19.70;16.92;;;19.30;99.90;;;;;;25714400;23;20008;-56
2023/07/11 06:17:29;;;;;;;16.75;10.95;;;19.90;99.90;;;;;;25714853;23;20328;-46
2023/07/11 06:27:31;;;;;;;10.13;7.82;;;22.10;99.90;;;;;;25714876;23;20009;-59
2023/07/11 06:37:33;;;;;;;13.73;8.00;;;26.60;99.90;;;;;;25713335;23;20005;-59
2023/07/11 06:47:34;;;;;;;8.80;7.20;;;29.20;99.90;;;;;;25713429;23;20009;-52
2023/07/11 06:57:36;;;;;;;13.65;8.18;;;30.30;99.90;;;;;;25713331;23;20062;-50
2023/07/11 07:07:38;;;;;;;14.27;10.02;;;31.30;99.90;;;;;;25712679;23;20011;-60
2023/07/11 07:17:40;;;;;;;9.98;8.57;;;31.60;98.40;;;;;;25712843;23;20377;-59
2023/07/11 07:27:42;;;;;;;10.73;8.85;;;31.90;97.00;;;;;;25712100;23;20004;-60
2023/07/11 07:37:43;;;;;;;10.57;9.20;;;31.90;96.80;;;;;;25710962;23;20008;-59
2023/07/11 07:47:45;;;;;;;12.63;10.32;;;31.40;97.00;;;;;;25710976;23;20032;-47
2023/07/11 07:57:48;;;;;;;10.30;7.95;;;29.60;98.50;;;;;;25712528;23;20370;-51
2023/07/11 08:07:50;;;;;;;11.52;10.30;;;29.30;99.90;;;;;;25711291;23;20009;-47
2023/07/11 08:17:51;;;;;;;11.63;9.65;;;29.40;99.90;;;;;;25710192;23;20412;-52
2023/07/11 08:27:53;;;;;;;18.85;12.75;;;29.40;99.90;;;;;;25709208;23;20008;-49
2023/07/11 08:37:55;;;;;;;12.25;8.80;;;28.50;99.90;;;;;;25710813;23;20370;-48
2023/07/11 08:48:03;;;;;;;10.75;9.43;;;29.40;99.90;;;;;;25710332;23;20387;-47
2023/07/11 08:58:25;;;;;;;11.02;10.05;;;29.90;99.90;;;;;;25751663;23;20096;-51
2023/07/11 09:08:27;;;;;;;11.90;10.70;;;30.10;99.90;;;;;;25750436;23;20075;-49
2023/07/11 09:18:43;;;;;;;12.05;10.85;;;29.90;99.90;;;;;;25709764;23;20436;-50
2023/07/11 09:28:45;;;;;;;11.18;9.63;;;29.60;99.30;;;;;;25756433;23;20005;-50
2023/07/11 09:39:22;;;;;;;12.30;10.65;;;29.00;99.90;;;;;;25718344;23;20427;-47
2023/07/11 09:49:30;;;;;;;13.60;11.25;;;28.80;99.90;;;;;;25334088;23;20026;-49
2023/07/11 09:59:32;;;;;;;13.48;10.38;;;29.60;99.90;;;;;;25337472;23;20085;-48
2023/07/11 10:09:43;;;;;;;12.93;11.65;;;29.80;99.90;;;;;;25332713;23;20065;-51
2023/07/11 10:19:47;;;;;;;13.93;12.43;;;29.80;99.90;;;;;;25495778;23;20513;-59
2023/07/11 10:29:56;;;;;;;17.43;15.20;;;30.90;99.90;;;;;;25714674;23;20000;-59
2023/07/11 10:40:08;;;;;;;17.60;14.43;;;31.50;99.90;;;;;;25755071;23;20444;-59
2023/07/11 10:50:43;;;;;;;21.42;19.10;;;32.10;99.60;;;;;;25723732;23;20024;-47
2023/07/11 11:00:48;;;;;;;19.48;16.33;;;32.20;99.90;;;;;;25713523;23;20470;-59
2023/07/11 11:10:55;;;;;;;;;;;32.20;99.10;;;;;;25712312;23;20114;-48
2023/07/11 11:21:17;;;;;;;19.73;17.23;;;32.30;98.70;;;;;;25754159;23;20240;-47
2023/07/11 11:31:26;;;;;;;20.65;17.48;;;32.30;98.70;;;;;;25753948;23;20016;-49
2023/07/11 11:41:45;;;;;;;19.73;16.05;;;32.10;99.90;;;;;;25753205;23;20058;-59
2023/07/11 11:51:47;;;;;;;18.52;16.48;;;32.00;98.80;;;;;;25714583;23;20043;-50
2023/07/11 12:02:12;;;;;;;15.77;14.23;;;31.80;98.70;;;;;;25710117;23;20005;-50
2023/07/11 12:12:35;;;;;;;17.50;15.10;;;32.20;98.40;;;;;;25752549;23;20012;-50
2023/07/11 12:22:37;;;;;;;19.40;16.27;;;31.30;99.90;;;;;;25695095;23;20012;-49
2023/07/11 12:32:40;;;;;;;26.17;18.42;;;32.00;99.90;;;;;;25710933;23;20010;-50
2023/07/11 12:42:48;;;;;;;21.52;17.30;;;32.20;99.30;;;;;;25710197;23;20514;-48
2023/07/11 12:53:01;;;;;;;22.83;16.77;;;32.40;98.70;;;;;;25751873;23;20012;-59
2023/07/11 13:03:32;;;;;;;16.33;14.55;;;32.50;98.80;;;;;;25755744;23;20063;-47
2023/07/11 13:13:38;;;;;;;17.08;15.45;;;32.80;97.60;;;;;;25759088;23;20001;-48
2023/07/11 13:23:45;;;;;;;19.38;17.42;;;32.50;97.90;;;;;;25758892;23;20005;-59
2023/07/11 13:33:57;;;;;;;19.67;16.58;;;32.20;97.80;;;;;;25758439;23;20008;-48
2023/07/11 13:44:32;;;;;;;20.25;18.08;;;32.10;98.50;;;;;;25688807;23;20016;-49
2023/07/11 13:54:38;;;;;;;18.88;16.85;;;31.70;97.20;;;;;;25712756;23;20063;-48
2023/07/11 14:04:40;;;;;;;19.77;16.58;;;31.70;98.10;;;;;;25713800;23;20013;-59
2023/07/11 14:14:42;;;;;;;17.35;15.60;;;31.90;98.60;;;;;;25714821;23;20047;-48
2023/07/11 14:24:43;;;;;;;18.00;16.17;;;32.20;97.40;;;;;;25714977;23;20008;-58
2023/07/11 14:34:45;;;;;;;16.02;14.32;;;31.90;98.20;;;;;;25714618;23;20004;-58
2023/07/11 14:44:47;;;;;;;14.68;12.48;;;31.80;96.80;;;;;;25713628;23;20096;-58
2023/07/11 14:54:49;;;;;;;16.65;14.05;;;31.40;98.70;;;;;;25713622;23;20082;-59
2023/07/11 15:04:50;;;;;;;14.98;12.93;;;31.90;97.00;;;;;;25713284;23;20004;-48
2023/07/11 15:14:55;;;;;;;12.32;10.88;;;31.90;95.50;;;;;;25712799;23;20008;-58
2023/07/11 15:24:56;;;;;;;13.53;11.77;;;32.10;95.30;;;;;;25711770;23;20432;-56
2023/07/11 15:34:58;;;;;;;17.77;10.65;;;32.00;94.60;;;;;;25712277;23;20004;-57
2023/07/11 15:45:03;;;;;;;16.73;11.77;;;31.90;93.80;;;;;;25711440;23;20091;-56
2023/07/11 15:55:06;;;;;;;14.63;12.13;;;31.30;94.60;;;;;;25752589;23;20016;-57
2023/07/11 16:05:12;;;;;;;15.43;11.52;;;30.90;95.10;;;;;;25710266;23;20004;-55
2023/07/11 16:15:14;;;;;;;13.35;9.32;;;30.00;95.60;;;;;;25752679;23;20047;-48
2023/07/11 16:25:17;;;;;;;14.55;10.10;;;28.40;97.40;;;;;;25710591;23;20059;-48
2023/07/11 16:35:30;;;;;;;12.13;9.13;;;27.20;98.70;;;;;;25712654;23;20004;-59
2023/07/11 16:45:33;;;;;;;16.98;11.50;;;26.50;99.90;;;;;;25748523;23;20336;-47
2023/07/11 16:55:34;;;;;;;15.95;12.52;;;25.80;99.90;;;;;;25718284;23;20498;-48
2023/07/11 17:05:36;;;;;;;19.55;12.63;;;24.50;99.90;;;;;;25718390;23;20000;-48
2023/07/11 17:15:37;;;;;;;17.77;13.02;;;23.50;99.90;;;;;;25716630;23;20009;-48
2023/07/11 17:25:39;;;;;;;17.73;13.40;;;22.60;99.90;;;;;;25718683;23;20090;-57
2023/07/11 17:35:42;;;;;;;17.20;14.63;;;22.00;99.90;;;;;;25715855;23;20008;-46
2023/07/11 17:45:45;;;;;;;19.98;14.95;;;21.60;99.90;;;;;;25716025;23;20017;-48
2023/07/11 17:55:47;;;;;;;24.60;15.90;;;21.20;99.90;;;;;;25715871;23;20067;-47
2023/07/11 18:05:50;;;;;;;17.85;14.38;;;21.10;99.90;;;;;;25715977;23;20013;-46
2023/07/11 18:15:53;;;;;;;19.33;14.55;;;20.90;99.90;;;;;;25714381;23;20506;-47
2023/07/11 18:25:57;;;;;;;21.73;16.10;;;20.70;99.90;;;;;;25713803;23;20083;-49
2023/07/11 18:35:59;;;;;;;21.67;16.23;;;20.50;99.90;;;;;;25713531;23;20004;-47
2023/07/11 18:46:05;;;;;;;26.30;17.15;;;20.10;99.90;;;;;;25712118;23;20005;-46
2023/07/11 18:56:21;;;;;;;22.60;18.65;;;19.80;99.90;;;;;;25753605;23;20011;-57
2023/07/11 19:06:22;;;;;;;22.67;16.80;;;19.50;99.90;;;;;;25753590;23;20011;-57
2023/07/11 19:16:27;;;;;;;17.65;15.20;;;19.40;99.90;;;;;;25711258;23;20005;-47
2023/07/11 19:26:28;;;;;;;20.05;14.52;;;19.40;99.90;;;;;;25711292;23;20436;-46
2023/07/11 19:36:30;;;;;;;21.10;14.50;;;19.30;99.90;;;;;;25710905;23;20009;-55
2023/07/11 19:46:32;;;;;;;21.95;14.50;;;19.30;99.90;;;;;;25710477;23;20009;-57
2023/07/11 19:56:33;;;;;;;22.17;14.57;;;19.30;99.90;;;;;;25683129;23;20367;-52
2023/07/11 20:06:35;;;;;;;21.52;15.00;;;19.30;99.90;;;;;;25709708;23;20005;-57
2023/07/11 20:16:37;;;;;;;22.80;14.45;;;19.20;99.90;;;;;;25684072;23;20015;-53
2023/07/11 20:26:39;;;;;;;18.65;12.73;;;19.10;99.90;;;;;;25683270;23;20004;-47
2023/07/11 20:36:40;;;;;;;23.98;11.38;;;19.10;99.90;;;;;;25709744;23;20391;-55
2023/07/11 20:46:42;;;;;;;19.27;11.02;;;19.20;99.90;;;;;;25682467;23;20005;-57
2023/07/11 20:56:44;;;;;;;19.17;11.98;;;19.40;99.90;;;;;;25707977;23;20000;-56
2023/07/11 21:06:45;;;;;;;24.27;12.95;;;19.40;99.90;;;;;;25708834;23;20063;-56
2023/07/11 21:16:48;;;;;;;22.52;13.32;;;19.50;99.90;;;;;;25708373;23;20004;-50
2023/07/11 21:26:49;;;;;;;28.05;13.88;;;19.70;99.90;;;;;;25715348;23;20000;-48
2023/07/11 21:36:51;;;;;;;21.85;13.68;;;19.60;99.90;;;;;;25716157;23;20009;-47
2023/07/11 21:46:52;;;;;;;23.50;12.40;;;19.70;99.90;;;;;;25715250;23;20012;-46
2023/07/11 21:56:54;;;;;;;23.27;13.48;;;19.60;99.90;;;;;;25715000;23;20008;-49
2023/07/11 22:06:56;;;;;;;21.20;12.60;;;19.50;99.90;;;;;;25714631;23;20007;-46
2023/07/11 22:16:58;;;;;;;22.67;13.30;;;19.30;99.90;;;;;;25687476;23;20084;-47
2023/07/11 22:27:00;;;;;;;22.85;14.10;;;19.20;99.90;;;;;;25713560;23;20004;-50
2023/07/11 22:37:01;;;;;;;24.05;14.15;;;19.10;99.90;;;;;;25712911;23;20008;-47
2023/07/11 22:47:03;;;;;;;23.90;14.43;;;19.10;99.90;;;;;;25712477;23;20351;-45
2023/07/11 22:57:05;;;;;;;23.65;16.50;;;19.10;99.90;;;;;;25713528;23;20011;-57
2023/07/11 23:07:07;;;;;;;26.42;14.25;;;19.20;99.90;;;;;;25712588;23;20005;-48
2023/07/11 23:17:09;;;;;;;21.38;14.50;;;19.40;99.90;;;;;;25711582;23;20375;-46
2023/07/11 23:27:13;;;;;;;25.35;13.20;;;19.40;99.90;;;;;;25711391;23;20008;-48
2023/07/11 23:37:14;;;;;;;26.50;14.45;;;19.50;99.90;;;;;;25711054;23;20112;-48
2023/07/11 23:47:16;;;;;;;22.92;13.23;;;19.50;99.90;;;;;;25710653;23;20012;-49
2023/07/11 23:57:18;;;;;;;17.38;11.15;;;19.50;99.90;;;;;;25710191;23;20039;-56
